Terminal Aerodrome Forecast
Issued by NWS

Home | Current Version | Previous Version | Text Only | Print | Product List | Glossary On
Versions: 1 2 3 4 5 6 7 8 9 10 11 12 13 14 15 16 17 18 19
000
FTUS43 KPAH 272300
TAFCGI
TAF
KCGI 272334Z 2800/2824 07003KT P6SM BKN250
     FM280700 00000KT 3SM BR MIFG FEW250
      TEMPO 2808/2812 1/4SM FG
     FM281400 05004KT P6SM SCT050=

USA.gov is the U.S. government's official web portal to all federal, state and local government web resources and services.